Time;durP1;ratioP1;P1;durP2;ratioP2;P2;SDS_P1;SDS_P2;PMS_P1;PMS_P2;Temp;Humidity;BMP_temperature;BMP_pressure;BME280_temperature;BME280_humidity;BME280_pressure;Samples;Min_cycle;Max_cycle;Signal;HPM_P1;HPM_P2
2022/06/07 00:01:34;;;;;;;2.17;1.80;;;15.40;99.90;;;;;;5054135;28;20640;-76
2022/06/07 00:04:00;;;;;;;3.93;1.77;;;15.20;99.90;;;;;;5054263;28;20174;-76
2022/06/07 00:06:26;;;;;;;2.50;1.63;;;15.20;99.90;;;;;;5054156;28;20184;-76
2022/06/07 00:08:52;;;;;;;2.30;1.60;;;15.10;99.90;;;;;;5054027;28;20221;-76
2022/06/07 00:11:18;;;;;;;1.70;1.60;;;15.00;99.90;;;;;;5054333;28;20186;-76
2022/06/07 00:13:45;;;;;;;2.27;1.77;;;15.00;99.90;;;;;;5070539;28;20237;-76
2022/06/07 00:16:12;;;;;;;4.73;1.80;;;14.80;99.90;;;;;;5054096;28;20189;-76
2022/06/07 00:18:38;;;;;;;3.17;1.67;;;14.80;99.90;;;;;;5054010;28;20296;-76
2022/06/07 00:21:04;;;;;;;2.47;1.70;;;14.90;99.90;;;;;;5070907;28;20170;-76
2022/06/07 00:23:31;;;;;;;3.13;1.70;;;14.90;99.90;;;;;;5053656;28;20181;-76
2022/06/07 00:25:58;;;;;;;3.17;1.67;;;14.80;99.90;;;;;;5053952;28;20668;-76
2022/06/07 00:28:24;;;;;;;4.23;1.60;;;14.70;99.90;;;;;;5053565;28;20197;-76
2022/06/07 00:30:51;;;;;;;2.20;1.80;;;14.70;99.90;;;;;;5053746;28;20188;-76
2022/06/07 00:33:18;;;;;;;2.67;1.60;;;14.60;99.90;;;;;;5053552;28;20285;-76
2022/06/07 00:35:45;;;;;;;1.83;1.40;;;14.70;99.90;;;;;;5070161;28;20182;-76
2022/06/07 00:38:10;;;;;;;2.17;1.60;;;14.70;99.90;;;;;;5053368;28;20274;-76
2022/06/07 00:40:36;;;;;;;3.20;1.70;;;14.70;99.90;;;;;;5053733;28;20644;-76
2022/06/07 00:43:02;;;;;;;1.60;1.50;;;14.70;99.90;;;;;;5053355;28;20213;-75
2022/06/07 00:45:29;;;;;;;1.67;1.57;;;14.80;99.90;;;;;;5053623;28;20266;-76
2022/06/07 00:47:54;;;;;;;2.63;1.60;;;14.90;99.90;;;;;;5053404;28;20192;-76
2022/06/07 00:50:38;;;;;;;2.13;1.70;;;14.90;99.90;;;;;;5053160;28;20181;-76
2022/06/07 00:53:05;;;;;;;1.87;1.77;;;14.90;99.90;;;;;;5053344;28;20178;-76
2022/06/07 00:55:31;;;;;;;1.80;1.70;;;14.90;99.90;;;;;;5053272;28;20196;-76
2022/06/07 00:57:57;;;;;;;1.93;1.80;;;14.90;99.90;;;;;;5053072;28;20218;-75
2022/06/07 01:00:23;;;;;;;2.17;1.47;;;14.90;99.90;;;;;;5053108;28;20235;-76
2022/06/07 01:02:51;;;;;;;1.80;1.70;;;14.80;99.90;;;;;;5036372;28;20219;-76
2022/06/07 01:05:16;;;;;;;2.73;1.70;;;14.70;99.90;;;;;;5053249;28;20229;-76
2022/06/07 01:10:44;;;;;;;1.87;1.50;;;14.60;99.90;;;;;;5053533;28;20196;-76
2022/06/07 01:13:11;;;;;;;2.00;1.70;;;14.60;99.90;;;;;;5069540;28;20181;-76
2022/06/07 01:15:37;;;;;;;2.30;1.47;;;14.40;99.90;;;;;;5069488;28;20169;-75
2022/06/07 01:18:02;;;;;;;1.60;1.50;;;14.40;99.90;;;;;;5069340;28;20212;-76
2022/06/07 01:20:29;;;;;;;2.03;1.80;;;14.40;99.90;;;;;;5053115;28;20174;-76
2022/06/07 01:22:55;;;;;;;3.13;1.70;;;14.30;99.90;;;;;;5052507;28;20212;-76
2022/06/07 01:25:22;;;;;;;2.90;1.53;;;14.20;99.90;;;;;;5069443;28;20169;-76
2022/06/07 01:27:47;;;;;;;1.70;1.60;;;14.10;99.90;;;;;;5054099;28;20169;-76
2022/06/07 01:30:14;;;;;;;2.70;1.57;;;14.10;99.90;;;;;;5052795;28;20200;-76
2022/06/07 01:32:40;;;;;;;1.93;1.67;;;14.10;99.90;;;;;;5069072;28;20182;-76
2022/06/07 01:35:07;;;;;;;1.53;1.43;;;14.10;99.90;;;;;;5052549;28;20185;-76
2022/06/07 01:37:33;;;;;;;1.70;1.60;;;14.20;99.90;;;;;;5052450;28;20335;-76
2022/06/07 01:42:43;;;;;;;2.50;1.80;;;14.20;99.90;;;;;;5052692;28;20180;-76
2022/06/07 01:45:09;;;;;;;1.47;1.37;;;14.10;99.90;;;;;;5052651;28;20174;-76
2022/06/07 01:47:35;;;;;;;2.73;1.80;;;14.20;99.90;;;;;;5068864;28;20182;-76
2022/06/07 01:50:02;;;;;;;1.50;1.40;;;14.10;99.90;;;;;;5053464;28;20226;-76
2022/06/07 01:52:30;;;;;;;1.90;1.60;;;14.10;99.90;;;;;;5068632;28;20241;-76
2022/06/07 01:54:56;;;;;;;1.97;1.50;;;14.00;99.90;;;;;;5068794;28;20178;-76
2022/06/07 01:57:22;;;;;;;3.00;1.57;;;13.90;99.90;;;;;;5052080;28;20201;-76
2022/06/07 01:59:48;;;;;;;1.80;1.70;;;13.80;99.90;;;;;;5068569;28;20570;-76
2022/06/07 02:02:14;;;;;;;2.40;1.50;;;13.80;99.90;;;;;;5051284;28;20170;-76
2022/06/07 02:04:41;;;;;;;2.83;1.57;;;13.80;99.90;;;;;;5052083;28;20223;-76
2022/06/07 02:07:09;;;;;;;1.83;1.73;;;13.70;99.90;;;;;;5053249;28;20193;-76
2022/06/07 02:09:37;;;;;;;1.87;1.70;;;13.70;99.90;;;;;;5069423;28;20205;-76
2022/06/07 02:12:03;;;;;;;1.70;1.60;;;13.80;99.90;;;;;;5068528;28;20169;-76
2022/06/07 02:14:29;;;;;;;2.83;1.63;;;13.80;99.90;;;;;;5051856;28;20269;-76
2022/06/07 02:16:55;;;;;;;1.83;1.50;;;13.80;99.90;;;;;;5051915;28;20212;-76
2022/06/07 06:29:45;;;;;;;1.70;1.50;;;16.30;99.90;;;;;;5380626;22;20254;-75
2022/06/07 06:32:11;;;;;;;2.47;1.20;;;16.30;99.90;;;;;;4995178;28;20180;-75
2022/06/07 06:34:37;;;;;;;2.23;1.63;;;16.40;99.90;;;;;;4979627;28;20179;-75
2022/06/07 06:37:02;;;;;;;2.17;1.90;;;16.40;99.90;;;;;;4995630;28;20546;-75
2022/06/07 06:39:29;;;;;;;2.33;1.60;;;16.60;99.90;;;;;;4979536;28;20207;-75
2022/06/07 06:41:55;;;;;;;2.20;1.40;;;16.70;99.90;;;;;;4995342;28;20183;-75
2022/06/07 06:44:20;;;;;;;1.30;1.20;;;16.70;99.90;;;;;;5012713;28;20175;-76
2022/06/07 06:46:48;;;;;;;1.60;1.50;;;16.80;99.90;;;;;;4995465;28;20187;-76
2022/06/07 06:49:15;;;;;;;1.90;1.70;;;16.90;99.90;;;;;;4995343;28;20203;-76
2022/06/07 06:51:42;;;;;;;1.70;1.50;;;16.80;99.90;;;;;;5011426;28;20175;-75
2022/06/07 06:54:11;;;;;;;2.47;1.50;;;16.80;99.90;;;;;;5011590;28;20649;-76
2022/06/07 06:56:38;;;;;;;1.73;1.50;;;16.90;99.90;;;;;;4995053;28;20175;-76
2022/06/07 06:59:03;;;;;;;1.87;1.40;;;16.90;99.90;;;;;;5011217;28;20206;-76
2022/06/07 07:01:32;;;;;;;1.57;1.47;;;17.10;99.90;;;;;;4992818;28;20224;-76
2022/06/07 07:04:00;;;;;;;2.40;1.50;;;17.20;99.90;;;;;;4998689;28;20191;-75
2022/06/07 07:06:27;;;;;;;2.73;1.60;;;17.30;99.90;;;;;;5011215;28;20171;-76
2022/06/07 07:08:53;;;;;;;1.60;1.47;;;17.40;99.90;;;;;;4978858;28;20286;-76
2022/06/07 07:11:21;;;;;;;1.50;1.30;;;17.40;99.90;;;;;;4978844;28;20221;-76
2022/06/07 07:13:47;;;;;;;1.80;1.23;;;17.40;99.90;;;;;;5010964;28;20175;-76
2022/06/07 07:16:17;;;;;;;2.43;1.50;;;17.50;99.90;;;;;;5012371;28;20654;-76
2022/06/07 07:18:43;;;;;;;2.23;1.50;;;17.50;99.90;;;;;;5012273;28;20301;-76
2022/06/07 07:21:15;;;;;;;2.97;1.60;;;17.60;99.90;;;;;;5011142;28;20167;-75
2022/06/07 07:23:40;;;;;;;2.20;1.50;;;17.70;99.90;;;;;;5011017;28;20253;-76
2022/06/07 07:26:10;;;;;;;2.87;1.43;;;17.50;99.90;;;;;;4994809;28;20214;-76
2022/06/07 07:28:38;;;;;;;1.57;1.30;;;17.40;99.90;;;;;;4994953;28;20636;-76
2022/06/07 07:31:22;;;;;;;1.57;1.30;;;17.40;99.90;;;;;;5011052;28;20278;-76
2022/06/07 07:33:48;;;;;;;2.20;1.40;;;17.50;99.90;;;;;;5010921;28;20266;-75
2022/06/07 07:36:14;;;;;;;2.37;1.50;;;17.80;99.90;;;;;;5010997;28;20179;-76
2022/06/07 07:38:41;;;;;;;2.33;1.50;;;18.00;99.90;;;;;;4994535;28;20673;-75
2022/06/07 07:41:36;;;;;;;1.20;1.10;;;18.10;99.90;;;;;;4983118;28;20183;-76
2022/06/07 07:44:04;;;;;;;1.50;1.40;;;18.20;99.90;;;;;;4979246;28;20214;-76
2022/06/07 07:46:34;;;;;;;1.97;1.23;;;18.20;99.90;;;;;;5002169;28;20188;-76
2022/06/07 07:49:01;;;;;;;2.50;1.30;;;18.20;99.90;;;;;;4975809;28;20346;-76
2022/06/07 07:51:30;;;;;;;3.23;1.40;;;18.10;99.90;;;;;;4975299;28;20183;-75
2022/06/07 07:53:58;;;;;;;3.63;1.27;;;18.00;99.90;;;;;;4998204;28;20266;-76
2022/06/07 07:56:25;;;;;;;2.53;1.20;;;18.10;99.90;;;;;;4979686;28;20275;-76
2022/06/07 07:58:52;;;;;;;2.10;1.50;;;18.30;99.90;;;;;;5003530;28;20238;-76
2022/06/07 08:01:21;;;;;;;1.60;1.30;;;18.40;99.90;;;;;;4993317;28;20171;-76
2022/06/07 08:03:48;;;;;;;2.90;1.40;;;18.50;99.90;;;;;;4994937;28;20227;-75
2022/06/07 08:06:17;;;;;;;2.20;1.30;;;18.40;99.90;;;;;;4995931;28;20175;-76
2022/06/07 08:08:43;;;;;;;2.40;1.30;;;18.30;99.90;;;;;;5014431;28;20203;-76
2022/06/07 08:11:10;;;;;;;1.67;1.47;;;18.50;99.90;;;;;;5014742;28;20175;-75
2022/06/07 08:13:36;;;;;;;3.30;1.40;;;18.70;99.90;;;;;;4997931;28;20216;-75
2022/06/07 08:16:04;;;;;;;2.17;1.40;;;18.80;99.90;;;;;;4982781;28;20179;-76
2022/06/07 08:18:29;;;;;;;1.93;1.10;;;19.00;99.90;;;;;;5012935;28;20207;-76
2022/06/07 08:21:00;;;;;;;1.50;1.20;;;19.00;99.90;;;;;;5000612;28;20170;-76
2022/06/07 08:23:28;;;;;;;1.50;1.20;;;19.20;99.90;;;;;;5006104;28;20167;-76
2022/06/07 08:25:58;;;;;;;1.97;1.20;;;19.50;99.90;;;;;;4995193;28;20548;-76
2022/06/07 08:28:24;;;;;;;1.50;1.30;;;19.60;99.90;;;;;;5011176;28;20570;-76
2022/06/07 08:30:50;;;;;;;1.30;1.20;;;19.50;99.90;;;;;;5011370;28;20207;-76
2022/06/07 08:38:45;;;;;;;2.13;1.20;;;19.10;99.90;;;;;;4995163;28;20285;-76
2022/06/07 08:41:27;;;;;;;1.00;1.00;;;19.00;99.90;;;;;;5011236;28;20168;-76
2022/06/07 08:44:04;;;;;;;1.20;1.10;;;19.10;99.90;;;;;;5011019;28;20217;-76
2022/06/07 08:46:33;;;;;;;1.47;0.93;;;19.30;99.90;;;;;;5011008;28;20250;-76
2022/06/07 08:48:59;;;;;;;1.33;1.13;;;19.30;99.90;;;;;;5010838;28;20202;-76
2022/06/07 08:51:31;;;;;;;1.00;0.90;;;19.10;99.90;;;;;;5008560;28;20196;-76
2022/06/07 08:54:00;;;;;;;2.77;1.20;;;19.20;99.90;;;;;;4979289;28;20556;-76
2022/06/07 08:56:30;;;;;;;1.13;1.00;;;19.40;99.90;;;;;;4994746;28;20198;-76
2022/06/07 08:59:00;;;;;;;1.50;1.03;;;19.50;99.90;;;;;;4995473;28;20207;-76
2022/06/07 09:01:40;;;;;;;1.40;1.10;;;19.90;99.90;;;;;;4994403;28;20231;-76
2022/06/07 09:04:30;;;;;;;1.43;0.90;;;20.20;99.90;;;;;;4995494;28;20159;-76
2022/06/07 09:07:03;;;;;;;2.00;1.10;;;20.40;99.90;;;;;;4994521;28;20230;-76
2022/06/07 09:12:30;;;;;;;1.85;0.80;;;20.90;99.90;;;;;;4995484;28;20222;-75
2022/06/07 09:15:12;;;;;;;1.10;1.00;;;21.00;99.90;;;;;;4995386;28;20164;-75
2022/06/07 09:17:41;;;;;;;2.60;1.00;;;21.30;99.90;;;;;;4994142;28;20196;-77
2022/06/07 09:20:19;;;;;;;1.70;1.15;;;21.30;99.90;;;;;;4993922;28;20198;-75
2022/06/07 09:22:52;;;;;;;1.65;1.10;;;21.20;99.90;;;;;;4993907;28;20182;-74
2022/06/07 09:25:34;;;;;;;2.78;1.08;;;21.00;99.90;;;;;;4994129;28;20195;-75
2022/06/07 09:28:02;;;;;;;2.22;1.00;;;20.70;99.90;;;;;;4993842;28;20250;-75
2022/06/07 09:30:41;;;;;;;1.10;1.00;;;20.70;99.90;;;;;;4993176;28;20196;-76
2022/06/07 09:33:20;;;;;;;1.52;1.10;;;20.20;99.90;;;;;;4992802;28;20164;-76
2022/06/07 09:35:48;;;;;;;2.97;1.00;;;20.20;99.90;;;;;;4992919;28;20175;-76
2022/06/07 09:38:26;;;;;;;1.13;0.90;;;20.50;99.90;;;;;;4976557;28;20211;-76
2022/06/07 09:41:01;;;;;;;1.00;0.90;;;20.70;99.90;;;;;;4994090;28;20252;-76
2022/06/07 09:43:38;;;;;;;0.80;0.80;;;21.10;99.90;;;;;;4992730;28;20254;-76
2022/06/07 09:46:08;;;;;;;0.85;0.75;;;21.00;99.90;;;;;;4978173;28;20176;-76
2022/06/07 09:48:45;;;;;;;1.77;1.00;;;20.50;99.90;;;;;;4976733;28;20206;-75
2022/06/07 09:51:17;;;;;;;2.42;0.90;;;20.30;99.90;;;;;;4992534;28;20203;-75
2022/06/07 09:54:05;;;;;;;1.10;1.00;;;20.60;99.90;;;;;;4992708;28;20191;-75
2022/06/07 09:56:54;;;;;;;1.23;1.00;;;20.50;99.90;;;;;;4992797;28;20271;-75
2022/06/07 09:59:43;;;;;;;1.00;0.90;;;20.40;99.90;;;;;;4992620;28;20261;-75
2022/06/07 10:02:56;;;;;;;1.00;0.98;;;20.30;99.90;;;;;;4992288;28;20164;-75
2022/06/07 10:05:47;;;;;;;1.55;1.00;;;20.30;99.90;;;;;;4992838;28;20176;-75
2022/06/07 10:08:37;;;;;;;1.10;0.95;;;20.90;99.90;;;;;;4992293;28;20164;-75
2022/06/07 10:11:14;;;;;;;3.03;1.00;;;21.00;99.90;;;;;;4992361;28;20176;-75
2022/06/07 10:14:02;;;;;;;1.52;0.95;;;21.20;99.90;;;;;;4992369;28;20164;-76
2022/06/07 10:17:01;;;;;;;1.30;1.00;;;21.30;99.90;;;;;;4992686;28;20172;-75
2022/06/07 10:19:38;;;;;;;1.30;1.10;;;21.40;99.90;;;;;;4993332;28;20205;-75
2022/06/07 10:22:20;;;;;;;1.13;1.02;;;21.00;99.90;;;;;;4992384;28;20183;-75
2022/06/07 10:24:57;;;;;;;2.67;1.10;;;20.90;99.90;;;;;;4991708;28;20259;-77
2022/06/07 10:27:34;;;;;;;1.35;1.00;;;21.20;99.90;;;;;;4992056;28;20176;-76
2022/06/07 10:30:38;;;;;;;2.08;1.00;;;21.60;99.90;;;;;;4955887;28;1070080;-75
2022/06/07 10:33:23;;;;;;;2.70;1.00;;;22.00;99.90;;;;;;4979579;28;20171;-75
2022/06/07 10:36:02;;;;;;;1.30;0.90;;;22.40;99.90;;;;;;4992740;28;20247;-76
2022/06/07 10:38:45;;;;;;;1.73;1.00;;;22.20;98.20;;;;;;4992749;28;20203;-75
2022/06/07 10:41:36;;;;;;;1.10;0.90;;;21.80;99.90;;;;;;4992994;28;20164;-74
2022/06/07 10:44:24;;;;;;;2.13;1.13;;;21.90;99.90;;;;;;4992402;28;20164;-76
2022/06/07 10:46:50;;;;;;;1.58;1.10;;;22.10;99.90;;;;;;4993043;28;20164;-76
2022/06/07 10:49:34;;;;;;;2.15;0.90;;;22.20;98.50;;;;;;4992531;28;20198;-76
2022/06/07 10:52:21;;;;;;;1.40;0.90;;;22.30;94.80;;;;;;4992506;28;20222;-76
2022/06/07 10:54:54;;;;;;;1.35;0.80;;;22.70;94.70;;;;;;4993572;28;20166;-76
2022/06/07 10:57:42;;;;;;;1.10;0.80;;;22.50;96.00;;;;;;4992602;28;20172;-76
2022/06/07 11:00:56;;;;;;;1.00;0.90;;;22.70;95.50;;;;;;4993415;28;20196;-76
2022/06/07 11:03:23;;;;;;;2.03;0.80;;;23.00;94.50;;;;;;4983278;28;20210;-76
2022/06/07 11:11:33;;;;;;;0.80;0.80;;;22.90;82.60;;;;;;4993580;28;20634;-76
2022/06/07 11:14:21;;;;;;;1.33;0.80;;;22.90;90.00;;;;;;4976002;28;20188;-76
2022/06/07 11:17:15;;;;;;;0.82;0.80;;;23.20;86.50;;;;;;4993515;28;20243;-79
2022/06/07 11:19:41;;;;;;;1.48;0.85;;;23.00;85.60;;;;;;4974172;28;20207;-79
2022/06/07 11:22:16;;;;;;;2.28;0.90;;;22.70;88.30;;;;;;4976331;28;20318;-79
2022/06/07 11:25:22;;;;;;;0.88;0.70;;;22.60;87.50;;;;;;4993683;28;20191;-79
2022/06/07 11:27:55;;;;;;;1.23;0.88;;;22.90;86.30;;;;;;4985587;28;20179;-79
2022/06/07 11:30:20;;;;;;;1.45;0.77;;;23.70;85.20;;;;;;4976558;28;20321;-79
2022/06/07 11:32:59;;;;;;;0.93;0.63;;;23.70;83.90;;;;;;4992732;28;20199;-79
2022/06/07 11:36:05;;;;;;;1.58;0.85;;;23.70;77.80;;;;;;4993102;28;20179;-79
2022/06/07 11:38:34;;;;;;;0.80;0.80;;;23.90;76.20;;;;;;4997788;28;20207;-79
2022/06/07 11:41:37;;;;;;;1.40;0.80;;;24.20;76.00;;;;;;4980061;28;20172;-79
2022/06/07 11:44:12;;;;;;;1.77;0.80;;;24.50;74.40;;;;;;4996314;28;20167;-80
2022/06/07 11:46:49;;;;;;;0.70;0.70;;;24.40;72.00;;;;;;4996559;28;20171;-79
2022/06/07 11:49:19;;;;;;;0.77;0.70;;;24.00;72.70;;;;;;4996302;28;20274;-80
2022/06/07 11:52:19;;;;;;;0.70;0.70;;;23.80;75.10;;;;;;4996371;28;20175;-80
2022/06/07 11:54:53;;;;;;;0.80;0.80;;;23.50;76.40;;;;;;4996535;28;20167;-80
2022/06/07 11:57:32;;;;;;;0.60;0.60;;;23.40;76.90;;;;;;4995914;28;20171;-79
2022/06/07 12:00:23;;;;;;;0.70;0.60;;;23.20;71.90;;;;;;4995917;28;20251;-79
2022/06/07 12:03:01;;;;;;;1.10;0.70;;;22.90;71.80;;;;;;4996225;28;20164;-79
2022/06/07 12:05:31;;;;;;;1.25;0.75;;;23.30;74.30;;;;;;4996100;28;20716;-79
2022/06/07 12:08:13;;;;;;;0.52;0.52;;;23.70;71.90;;;;;;4997301;28;20164;-79
2022/06/07 12:10:59;;;;;;;1.58;0.90;;;24.00;72.90;;;;;;4996021;28;20164;-79
2022/06/07 12:16:33;;;;;;;0.70;0.70;;;24.10;71.10;;;;;;4997236;28;20599;-79
2022/06/07 12:19:00;;;;;;;1.00;0.70;;;24.60;71.30;;;;;;4995995;28;20211;-79
2022/06/07 12:21:27;;;;;;;0.70;0.70;;;24.70;71.50;;;;;;4995645;28;20184;-79
2022/06/07 12:24:02;;;;;;;1.00;0.90;;;24.50;73.10;;;;;;4979606;28;20180;-79
2022/06/07 12:26:36;;;;;;;0.70;0.70;;;24.10;71.50;;;;;;4979707;28;20163;-79
2022/06/07 12:29:11;;;;;;;1.38;0.68;;;23.60;72.70;;;;;;4995844;28;20215;-79
2022/06/07 12:31:48;;;;;;;0.77;0.70;;;23.40;72.40;;;;;;4995745;28;20163;-78
2022/06/07 12:34:18;;;;;;;1.00;0.88;;;23.90;73.60;;;;;;4995620;28;20171;-78
2022/06/07 12:36:46;;;;;;;1.17;0.68;;;24.10;70.00;;;;;;4995860;28;20254;-77
2022/06/07 12:39:15;;;;;;;1.00;0.70;;;23.50;71.90;;;;;;4995335;28;20207;-78
2022/06/07 12:41:59;;;;;;;0.60;0.60;;;23.30;73.20;;;;;;4995630;28;20172;-78
2022/06/07 12:44:36;;;;;;;0.82;0.82;;;23.30;74.60;;;;;;5023803;23;20227;-77
2022/06/07 12:47:03;;;;;;;0.93;0.65;;;23.60;74.00;;;;;;5014711;28;20182;-78
2022/06/07 12:49:51;;;;;;;1.00;0.80;;;23.90;72.60;;;;;;5000279;28;20183;-78
2022/06/07 12:52:20;;;;;;;1.60;0.75;;;23.80;71.50;;;;;;5016974;28;20555;-78
2022/06/07 12:54:51;;;;;;;0.75;0.70;;;23.50;71.90;;;;;;5018363;28;20206;-78
2022/06/07 12:57:19;;;;;;;0.80;0.70;;;23.60;75.50;;;;;;5000825;28;20190;-78
2022/06/07 13:00:03;;;;;;;4.82;1.35;;;23.20;72.80;;;;;;5015279;28;20257;-77
2022/06/07 13:02:31;;;;;;;1.00;0.68;;;22.90;72.60;;;;;;5015286;28;20171;-78
2022/06/07 13:05:00;;;;;;;0.88;0.77;;;22.90;73.70;;;;;;5016243;28;20661;-78
2022/06/07 13:07:41;;;;;;;0.93;0.60;;;23.50;74.80;;;;;;5017340;28;20167;-78
2022/06/07 13:10:13;;;;;;;2.65;0.80;;;24.20;74.40;;;;;;5018199;28;20182;-78
2022/06/07 13:12:43;;;;;;;1.23;0.70;;;24.60;73.00;;;;;;5016746;28;20199;-78
2022/06/07 13:15:20;;;;;;;0.73;0.70;;;24.50;71.80;;;;;;5016365;28;20174;-78
2022/06/07 13:18:00;;;;;;;0.60;0.60;;;24.00;70.00;;;;;;4999470;28;20289;-77
2022/06/07 13:20:46;;;;;;;0.60;0.60;;;23.50;72.60;;;;;;4998817;28;20171;-78
2022/06/07 13:23:18;;;;;;;1.30;0.70;;;23.30;74.10;;;;;;4998044;28;20615;-76
2022/06/07 13:25:43;;;;;;;1.08;0.88;;;23.60;75.50;;;;;;5013369;28;20193;-77
2022/06/07 13:28:18;;;;;;;1.05;0.75;;;24.00;73.70;;;;;;4998394;28;20259;-77
2022/06/07 13:30:45;;;;;;;0.70;0.70;;;24.20;71.30;;;;;;4997690;28;20645;-77
2022/06/07 13:33:27;;;;;;;1.55;0.80;;;24.40;73.70;;;;;;5012451;28;20202;-77
2022/06/07 13:36:00;;;;;;;0.70;0.70;;;24.40;71.50;;;;;;5013827;28;20182;-78
2022/06/07 13:38:36;;;;;;;3.28;0.70;;;24.20;73.90;;;;;;5014006;28;20195;-78
2022/06/07 13:41:18;;;;;;;1.83;0.88;;;24.00;74.10;;;;;;5015299;28;20229;-78
2022/06/07 13:43:58;;;;;;;0.93;0.80;;;23.60;75.80;;;;;;5014867;28;20217;-80
2022/06/07 13:46:38;;;;;;;0.70;0.70;;;23.40;76.70;;;;;;5015777;28;20167;-81
2022/06/07 13:55:06;;;;;;;0.70;0.70;;;23.30;77.30;;;;;;5016113;28;20186;-80
2022/06/07 13:57:32;;;;;;;0.73;0.70;;;23.40;78.30;;;;;;4999753;28;20190;-81
2022/06/07 13:59:58;;;;;;;1.90;0.80;;;23.60;76.70;;;;;;5000789;28;20179;-81
2022/06/07 14:02:24;;;;;;;1.10;0.80;;;23.80;78.80;;;;;;5000887;28;20266;-79
2022/06/07 14:04:49;;;;;;;1.15;0.70;;;23.80;75.70;;;;;;5000574;28;20218;-80
2022/06/07 14:07:15;;;;;;;2.00;1.08;;;23.80;77.90;;;;;;5000737;28;20174;-81
2022/06/07 14:09:43;;;;;;;2.22;1.20;;;23.50;78.70;;;;;;5001168;28;20213;-80
2022/06/07 14:12:09;;;;;;;1.98;0.90;;;23.40;79.70;;;;;;5016638;28;20588;-80
2022/06/07 14:14:35;;;;;;;1.00;0.70;;;23.40;81.60;;;;;;5000190;28;20221;-81
2022/06/07 14:17:20;;;;;;;2.30;0.80;;;23.40;79.70;;;;;;5001135;28;20187;-80
2022/06/07 14:19:53;;;;;;;0.70;0.70;;;23.30;79.00;;;;;;5016368;28;20198;-81
2022/06/07 14:22:23;;;;;;;1.10;0.95;;;23.00;79.60;;;;;;5000828;28;20179;-81
2022/06/07 14:24:49;;;;;;;1.08;0.90;;;22.90;81.70;;;;;;5000539;28;20198;-80
2022/06/07 14:27:18;;;;;;;1.05;0.85;;;22.90;84.30;;;;;;5016789;28;20173;-80
2022/06/07 14:29:44;;;;;;;1.48;0.98;;;22.80;85.80;;;;;;4999996;28;20661;-81
2022/06/07 14:32:19;;;;;;;1.02;0.90;;;22.70;85.70;;;;;;5016504;28;20705;-80
2022/06/07 14:34:46;;;;;;;1.52;0.90;;;22.90;86.90;;;;;;5000458;28;20194;-81
2022/06/07 14:37:14;;;;;;;1.00;0.90;;;23.00;89.00;;;;;;5017488;28;20692;-81
2022/06/07 14:39:40;;;;;;;0.80;0.80;;;23.30;87.70;;;;;;5000504;28;20278;-81
2022/06/07 14:42:06;;;;;;;1.10;0.80;;;23.40;84.50;;;;;;5016363;28;20171;-81
2022/06/07 14:44:32;;;;;;;1.08;0.98;;;23.40;84.70;;;;;;5000746;28;20206;-80
2022/06/07 14:46:58;;;;;;;1.23;1.00;;;23.80;82.90;;;;;;5001081;28;20243;-81
2022/06/07 14:49:33;;;;;;;1.13;0.95;;;24.00;84.40;;;;;;5001255;28;20179;-80
2022/06/07 14:51:59;;;;;;;0.82;0.80;;;23.90;85.60;;;;;;5018488;28;20174;-80
2022/06/07 14:54:27;;;;;;;3.55;1.30;;;23.80;85.00;;;;;;5002327;28;20212;-81
2022/06/07 14:56:53;;;;;;;1.40;0.93;;;24.10;86.30;;;;;;5018005;28;20171;-80
2022/06/07 14:59:20;;;;;;;2.20;1.00;;;24.10;86.20;;;;;;5001724;28;20297;-81
2022/06/07 15:02:01;;;;;;;0.88;0.85;;;23.90;85.60;;;;;;5001392;28;20262;-81
2022/06/07 15:04:26;;;;;;;1.55;1.20;;;23.50;86.00;;;;;;5001557;28;20194;-81
2022/06/07 15:06:52;;;;;;;1.08;0.95;;;23.20;87.40;;;;;;5018708;28;20205;-81
2022/06/07 15:09:21;;;;;;;1.58;1.02;;;23.10;89.00;;;;;;5002605;28;20241;-81
2022/06/07 15:11:47;;;;;;;2.33;1.00;;;23.30;89.80;;;;;;5018665;28;20253;-81
2022/06/07 15:14:13;;;;;;;1.20;1.10;;;23.70;85.50;;;;;;5017775;28;20203;-80
2022/06/07 15:16:43;;;;;;;1.23;0.90;;;23.70;86.00;;;;;;5019377;28;20241;-81
2022/06/07 15:19:21;;;;;;;1.08;0.98;;;23.70;87.30;;;;;;5003615;28;20207;-80
2022/06/07 15:21:49;;;;;;;1.08;0.82;;;23.30;88.80;;;;;;5019462;28;20171;-81
2022/06/07 15:24:15;;;;;;;2.13;0.90;;;23.20;89.90;;;;;;5004365;28;20266;-81
2022/06/07 15:26:43;;;;;;;1.00;0.90;;;23.00;89.90;;;;;;5020871;28;20173;-81
2022/06/07 15:29:09;;;;;;;1.15;0.90;;;23.30;90.40;;;;;;5005415;28;20232;-80
2022/06/07 15:31:35;;;;;;;2.40;1.10;;;23.60;86.50;;;;;;5020718;28;20265;-80
2022/06/07 15:34:06;;;;;;;2.00;0.90;;;23.60;85.60;;;;;;5004101;28;20202;-80
2022/06/07 15:36:32;;;;;;;3.05;0.90;;;23.50;85.40;;;;;;5007387;28;20174;-80
2022/06/07 15:38:58;;;;;;;3.70;0.98;;;23.30;87.80;;;;;;5006622;28;20591;-81
2022/06/07 15:44:09;;;;;;;3.78;1.08;;;22.90;89.50;;;;;;5022701;28;20241;-81
2022/06/07 15:46:36;;;;;;;1.10;1.00;;;22.80;89.40;;;;;;5023690;28;20178;-80
2022/06/07 15:49:05;;;;;;;2.30;0.90;;;22.80;90.80;;;;;;5006513;28;20186;-79
2022/06/07 15:51:32;;;;;;;1.27;0.90;;;22.70;90.70;;;;;;5023524;28;20530;-81
2022/06/07 15:54:00;;;;;;;0.93;0.90;;;22.60;91.00;;;;;;5023974;28;20222;-81
2022/06/07 15:56:26;;;;;;;2.17;0.90;;;22.50;91.60;;;;;;5007417;28;20185;-79
2022/06/07 15:59:04;;;;;;;0.80;0.80;;;22.40;91.10;;;;;;5007873;28;20226;-81
2022/06/07 16:01:35;;;;;;;1.10;1.00;;;22.40;92.40;;;;;;5009619;28;20202;-81
2022/06/07 16:04:01;;;;;;;1.33;1.02;;;22.30;93.20;;;;;;5008702;28;20199;-80
2022/06/07 16:06:31;;;;;;;2.65;0.93;;;22.50;93.20;;;;;;5025738;28;20171;-80
2022/06/07 16:08:58;;;;;;;1.33;1.00;;;22.60;94.10;;;;;;5025157;28;20656;-80
2022/06/07 16:11:24;;;;;;;2.72;1.08;;;22.70;92.50;;;;;;5008788;28;20183;-80
2022/06/07 16:13:50;;;;;;;1.92;1.27;;;22.70;92.80;;;;;;5009905;28;20199;-80
2022/06/07 16:16:18;;;;;;;2.13;1.10;;;22.60;92.50;;;;;;5010332;28;20218;-81
2022/06/07 16:18:43;;;;;;;2.45;0.98;;;22.50;93.20;;;;;;5027598;28;20270;-82
2022/06/07 16:21:10;;;;;;;1.88;1.00;;;22.50;94.20;;;;;;5007538;28;20186;-85
2022/06/07 16:23:36;;;;;;;2.15;1.10;;;22.60;94.10;;;;;;5012077;28;20206;-81
2022/06/07 16:26:02;;;;;;;3.10;1.20;;;22.60;94.40;;;;;;5010353;28;20174;-82
2022/06/07 16:33:58;;;;;;;1.05;0.98;;;22.30;96.20;;;;;;5016765;28;20264;-78
2022/06/07 16:36:26;;;;;;;1.73;1.08;;;22.30;95.90;;;;;;4999578;28;20214;-80
2022/06/07 16:38:53;;;;;;;1.20;1.00;;;22.20;95.70;;;;;;5015962;28;20206;-79
2022/06/07 16:41:20;;;;;;;2.05;1.02;;;22.00;96.40;;;;;;5015625;28;20175;-79
2022/06/07 16:44:01;;;;;;;1.10;0.80;;;22.00;97.40;;;;;;5015781;28;20210;-78
2022/06/07 16:46:49;;;;;;;1.20;1.10;;;21.90;97.40;;;;;;5016081;28;20171;-80
2022/06/07 16:49:44;;;;;;;1.27;1.10;;;21.90;97.30;;;;;;5016464;28;20258;-81
2022/06/07 16:52:09;;;;;;;1.55;1.00;;;21.80;98.00;;;;;;4991014;28;20230;-79
2022/06/07 16:54:37;;;;;;;2.95;1.13;;;21.80;98.20;;;;;;5000425;28;20199;-80
2022/06/07 16:57:07;;;;;;;3.00;1.10;;;21.70;99.00;;;;;;5016483;28;20179;-80
2022/06/07 16:59:34;;;;;;;2.45;1.00;;;21.70;99.70;;;;;;5016573;28;20206;-80
2022/06/07 17:02:00;;;;;;;2.40;1.23;;;21.70;99.00;;;;;;5015830;28;20188;-79
2022/06/07 17:04:26;;;;;;;2.65;1.00;;;21.70;98.90;;;;;;4999689;28;20195;-78
2022/06/07 17:06:52;;;;;;;1.17;1.08;;;21.70;99.20;;;;;;5000177;28;20186;-79
2022/06/07 17:09:18;;;;;;;1.50;1.00;;;21.60;99.30;;;;;;5016679;28;20175;-80
2022/06/07 17:11:44;;;;;;;2.33;1.20;;;21.60;99.90;;;;;;5017288;28;20179;-79
2022/06/07 17:14:10;;;;;;;5.03;1.17;;;21.60;99.90;;;;;;5017230;28;20203;-79
2022/06/07 17:16:37;;;;;;;2.85;1.20;;;21.60;99.90;;;;;;5001482;28;20179;-80
2022/06/07 17:19:04;;;;;;;1.98;1.10;;;21.60;99.50;;;;;;5017304;28;20195;-79
2022/06/07 17:21:31;;;;;;;1.20;1.10;;;21.60;99.90;;;;;;5015835;28;20167;-79
2022/06/07 17:23:58;;;;;;;1.85;1.00;;;21.60;99.90;;;;;;5023505;28;20187;-80
2022/06/07 17:26:25;;;;;;;3.67;1.20;;;21.60;99.90;;;;;;5000633;28;20270;-80
2022/06/07 17:28:51;;;;;;;1.08;1.00;;;21.60;99.70;;;;;;5001243;28;20262;-79
2022/06/07 17:31:17;;;;;;;1.17;0.93;;;21.60;99.90;;;;;;5000609;28;20725;-80
2022/06/07 17:33:42;;;;;;;0.95;0.85;;;21.50;99.90;;;;;;5000550;28;20230;-80
2022/06/07 17:36:10;;;;;;;2.72;1.10;;;21.50;99.90;;;;;;5008160;28;20186;-79
2022/06/07 17:38:38;;;;;;;3.08;1.00;;;21.40;99.90;;;;;;5016278;28;20547;-79
2022/06/07 17:41:04;;;;;;;1.67;0.90;;;21.40;99.90;;;;;;5015784;28;20179;-79
2022/06/07 17:43:30;;;;;;;3.40;1.20;;;21.40;99.90;;;;;;5014636;28;20758;-79
2022/06/07 17:45:56;;;;;;;1.00;1.00;;;21.30;99.90;;;;;;4999161;28;20199;-79
2022/06/07 17:48:22;;;;;;;1.73;1.02;;;21.20;99.90;;;;;;5018329;28;20178;-81
2022/06/07 17:50:48;;;;;;;2.33;1.02;;;21.20;99.90;;;;;;5005573;28;20255;-80
2022/06/07 17:53:14;;;;;;;3.25;0.88;;;20.60;99.90;;;;;;5004943;28;20290;-76
2022/06/07 17:55:42;;;;;;;1.55;0.98;;;19.60;99.90;;;;;;4996186;28;20278;-76
2022/06/07 17:58:08;;;;;;;1.50;0.90;;;18.90;99.90;;;;;;5012332;28;20199;-77